sensor_id;sensor_type;location;lat;lon;timestamp;pressure;altitude;pressure_sealevel;temperature;humidity
72896;BME280;61036;53.224;6.554;2022-11-20T00:02:16;101467.94;;;0.57;100.00
72896;BME280;61036;53.224;6.554;2022-11-20T00:04:41;101457.25;;;0.60;100.00
72896;BME280;61036;53.224;6.554;2022-11-20T00:07:07;101451.03;;;0.60;100.00
72896;BME280;61036;53.224;6.554;2022-11-20T00:09:33;101452.81;;;0.61;100.00
72896;BME280;61036;53.224;6.554;2022-11-20T00:11:58;101452.97;;;0.55;100.00
72896;BME280;61036;53.224;6.554;2022-11-20T00:14:28;101458.06;;;0.62;100.00
72896;BME280;61036;53.224;6.554;2022-11-20T00:16:54;101453.69;;;0.61;100.00
72896;BME280;61036;53.224;6.554;2022-11-20T00:19:22;101448.53;;;0.54;100.00
72896;BME280;61036;53.224;6.554;2022-11-20T00:21:49;101451.59;;;0.37;100.00
72896;BME280;61036;53.224;6.554;2022-11-20T00:24:16;101456.13;;;0.32;100.00
72896;BME280;61036;53.224;6.554;2022-11-20T00:26:42;101449.75;;;0.40;100.00
72896;BME280;61036;53.224;6.554;2022-11-20T00:29:09;101451.31;;;0.49;100.00
72896;BME280;61036;53.224;6.554;2022-11-20T00:31:35;101447.97;;;0.41;100.00
72896;BME280;61036;53.224;6.554;2022-11-20T00:34:01;101447.34;;;0.30;100.00
72896;BME280;61036;53.224;6.554;2022-11-20T00:36:28;101446.00;;;0.49;100.00
72896;BME280;61036;53.224;6.554;2022-11-20T00:38:57;101433.78;;;0.42;100.00
72896;BME280;61036;53.224;6.554;2022-11-20T00:41:24;101436.28;;;0.50;100.00
72896;BME280;61036;53.224;6.554;2022-11-20T00:43:54;101440.59;;;0.54;100.00
72896;BME280;61036;53.224;6.554;2022-11-20T00:46:23;101445.06;;;0.52;100.00
72896;BME280;61036;53.224;6.554;2022-11-20T00:48:49;101443.16;;;0.57;100.00
72896;BME280;61036;53.224;6.554;2022-11-20T00:51:17;101450.25;;;0.58;100.00
72896;BME280;61036;53.224;6.554;2022-11-20T00:53:44;101442.38;;;0.53;100.00
72896;BME280;61036;53.224;6.554;2022-11-20T00:56:12;101447.97;;;0.41;100.00
72896;BME280;61036;53.224;6.554;2022-11-20T00:58:42;101447.75;;;0.50;100.00
72896;BME280;61036;53.224;6.554;2022-11-20T01:01:13;101437.84;;;0.58;100.00
72896;BME280;61036;53.224;6.554;2022-11-20T01:03:43;101435.06;;;0.63;100.00
72896;BME280;61036;53.224;6.554;2022-11-20T01:06:17;101436.97;;;0.56;100.00
72896;BME280;61036;53.224;6.554;2022-11-20T01:08:44;101433.63;;;0.48;100.00
72896;BME280;61036;53.224;6.554;2022-11-20T01:11:21;101427.31;;;0.54;100.00
72896;BME280;61036;53.224;6.554;2022-11-20T01:13:49;101423.88;;;0.50;100.00
72896;BME280;61036;53.224;6.554;2022-11-20T01:16:19;101428.25;;;0.51;100.00
72896;BME280;61036;53.224;6.554;2022-11-20T01:18:47;101430.66;;;0.62;100.00
72896;BME280;61036;53.224;6.554;2022-11-20T01:21:21;101424.50;;;0.60;100.00
72896;BME280;61036;53.224;6.554;2022-11-20T01:23:48;101418.25;;;0.64;100.00
72896;BME280;61036;53.224;6.554;2022-11-20T01:26:17;101407.78;;;0.56;100.00
72896;BME280;61036;53.224;6.554;2022-11-20T01:28:43;101411.16;;;0.64;100.00
72896;BME280;61036;53.224;6.554;2022-11-20T01:31:19;101415.59;;;0.62;100.00
72896;BME280;61036;53.224;6.554;2022-11-20T01:33:53;101412.16;;;0.59;100.00
72896;BME280;61036;53.224;6.554;2022-11-20T01:36:20;101412.25;;;0.56;100.00
72896;BME280;61036;53.224;6.554;2022-11-20T01:38:46;101408.78;;;0.52;100.00
72896;BME280;61036;53.224;6.554;2022-11-20T01:41:14;101407.09;;;0.50;100.00
72896;BME280;61036;53.224;6.554;2022-11-20T01:44:01;101406.28;;;0.46;100.00
72896;BME280;61036;53.224;6.554;2022-11-20T01:46:27;101401.78;;;0.48;100.00
72896;BME280;61036;53.224;6.554;2022-11-20T01:48:59;101396.06;;;0.66;100.00
72896;BME280;61036;53.224;6.554;2022-11-20T01:51:37;101390.84;;;0.62;100.00
72896;BME280;61036;53.224;6.554;2022-11-20T01:54:06;101395.53;;;0.52;100.00
72896;BME280;61036;53.224;6.554;2022-11-20T01:56:37;101388.34;;;0.56;100.00
72896;BME280;61036;53.224;6.554;2022-11-20T01:59:07;101391.94;;;0.55;100.00
72896;BME280;61036;53.224;6.554;2022-11-20T02:01:33;101386.63;;;0.53;100.00
72896;BME280;61036;53.224;6.554;2022-11-20T02:04:00;101381.19;;;0.59;100.00
72896;BME280;61036;53.224;6.554;2022-11-20T02:06:29;101383.03;;;0.56;100.00
72896;BME280;61036;53.224;6.554;2022-11-20T02:08:57;101375.13;;;0.54;100.00
72896;BME280;61036;53.224;6.554;2022-11-20T02:11:23;101366.50;;;0.46;100.00
72896;BME280;61036;53.224;6.554;2022-11-20T02:13:51;101367.50;;;0.40;100.00
72896;BME280;61036;53.224;6.554;2022-11-20T02:16:25;101366.41;;;0.49;100.00
72896;BME280;61036;53.224;6.554;2022-11-20T02:18:54;101362.97;;;0.45;100.00
72896;BME280;61036;53.224;6.554;2022-11-20T02:21:27;101363.75;;;0.49;100.00
72896;BME280;61036;53.224;6.554;2022-11-20T02:24:03;101365.38;;;0.55;100.00
72896;BME280;61036;53.224;6.554;2022-11-20T02:26:31;101361.81;;;0.56;100.00
72896;BME280;61036;53.224;6.554;2022-11-20T02:28:59;101366.19;;;0.57;100.00
72896;BME280;61036;53.224;6.554;2022-11-20T02:31:26;101360.00;;;0.58;100.00
72896;BME280;61036;53.224;6.554;2022-11-20T02:33:58;101364.38;;;0.59;100.00
72896;BME280;61036;53.224;6.554;2022-11-20T02:36:26;101365.25;;;0.59;100.00
72896;BME280;61036;53.224;6.554;2022-11-20T02:38:52;101358.22;;;0.58;100.00
72896;BME280;61036;53.224;6.554;2022-11-20T02:41:18;101366.88;;;0.66;100.00
72896;BME280;61036;53.224;6.554;2022-11-20T02:43:45;101361.41;;;0.73;100.00
72896;BME280;61036;53.224;6.554;2022-11-20T02:46:10;101370.38;;;0.67;100.00
72896;BME280;61036;53.224;6.554;2022-11-20T02:48:36;101359.06;;;0.60;100.00
72896;BME280;61036;53.224;6.554;2022-11-20T02:51:03;101356.47;;;0.57;100.00
72896;BME280;61036;53.224;6.554;2022-11-20T02:53:31;101352.00;;;0.59;100.00
72896;BME280;61036;53.224;6.554;2022-11-20T02:55:58;101347.69;;;0.55;100.00
72896;BME280;61036;53.224;6.554;2022-11-20T02:58:23;101353.84;;;0.57;100.00
72896;BME280;61036;53.224;6.554;2022-11-20T03:00:49;101346.75;;;0.58;100.00
72896;BME280;61036;53.224;6.554;2022-11-20T03:03:16;101343.09;;;0.62;100.00
72896;BME280;61036;53.224;6.554;2022-11-20T03:05:42;101350.34;;;0.55;100.00
72896;BME280;61036;53.224;6.554;2022-11-20T03:08:09;101345.03;;;0.55;100.00
72896;BME280;61036;53.224;6.554;2022-11-20T03:10:35;101349.63;;;0.49;100.00
72896;BME280;61036;53.224;6.554;2022-11-20T03:13:00;101347.53;;;0.60;100.00
72896;BME280;61036;53.224;6.554;2022-11-20T03:15:27;101339.78;;;0.52;100.00
72896;BME280;61036;53.224;6.554;2022-11-20T03:17:54;101337.16;;;0.52;100.00
72896;BME280;61036;53.224;6.554;2022-11-20T03:20:20;101331.53;;;0.63;100.00
72896;BME280;61036;53.224;6.554;2022-11-20T03:22:46;101330.75;;;0.59;100.00
72896;BME280;61036;53.224;6.554;2022-11-20T03:25:12;101321.06;;;0.58;100.00
72896;BME280;61036;53.224;6.554;2022-11-20T03:27:40;101311.31;;;0.59;100.00
72896;BME280;61036;53.224;6.554;2022-11-20T03:30:07;101314.97;;;0.55;100.00
72896;BME280;61036;53.224;6.554;2022-11-20T03:32:32;101312.00;;;0.65;100.00
72896;BME280;61036;53.224;6.554;2022-11-20T03:34:58;101311.38;;;0.57;100.00
72896;BME280;61036;53.224;6.554;2022-11-20T03:37:23;101300.53;;;0.65;100.00
72896;BME280;61036;53.224;6.554;2022-11-20T03:39:52;101293.75;;;0.53;100.00
72896;BME280;61036;53.224;6.554;2022-11-20T03:42:18;101291.09;;;0.55;100.00
72896;BME280;61036;53.224;6.554;2022-11-20T03:45:02;101284.00;;;0.55;100.00
72896;BME280;61036;53.224;6.554;2022-11-20T03:47:30;101286.66;;;0.54;100.00
72896;BME280;61036;53.224;6.554;2022-11-20T03:49:59;101288.50;;;0.52;100.00
72896;BME280;61036;53.224;6.554;2022-11-20T03:52:26;101279.63;;;0.53;100.00
72896;BME280;61036;53.224;6.554;2022-11-20T03:54:52;101284.91;;;0.54;100.00
72896;BME280;61036;53.224;6.554;2022-11-20T03:57:18;101280.47;;;0.55;100.00
72896;BME280;61036;53.224;6.554;2022-11-20T03:59:46;101276.28;;;0.46;100.00
72896;BME280;61036;53.224;6.554;2022-11-20T04:02:12;101273.47;;;0.52;100.00
72896;BME280;61036;53.224;6.554;2022-11-20T04:04:37;101277.75;;;0.56;100.00
72896;BME280;61036;53.224;6.554;2022-11-20T04:07:04;101282.47;;;0.45;100.00
72896;BME280;61036;53.224;6.554;2022-11-20T04:09:30;101273.63;;;0.46;100.00
72896;BME280;61036;53.224;6.554;2022-11-20T04:11:56;101272.69;;;0.49;100.00
72896;BME280;61036;53.224;6.554;2022-11-20T04:14:22;101267.47;;;0.44;100.00
72896;BME280;61036;53.224;6.554;2022-11-20T04:16:48;101265.84;;;0.38;100.00
72896;BME280;61036;53.224;6.554;2022-11-20T04:19:15;101268.47;;;0.40;100.00
72896;BME280;61036;53.224;6.554;2022-11-20T04:21:44;101269.34;;;0.40;100.00
72896;BME280;61036;53.224;6.554;2022-11-20T04:24:09;101271.66;;;0.54;100.00
72896;BME280;61036;53.224;6.554;2022-11-20T04:26:39;101274.66;;;0.39;100.00
72896;BME280;61036;53.224;6.554;2022-11-20T04:29:04;101270.25;;;0.39;100.00
72896;BME280;61036;53.224;6.554;2022-11-20T04:31:32;101264.13;;;0.37;100.00
72896;BME280;61036;53.224;6.554;2022-11-20T04:34:03;101266.53;;;0.47;100.00
72896;BME280;61036;53.224;6.554;2022-11-20T04:36:30;101259.59;;;0.41;100.00
72896;BME280;61036;53.224;6.554;2022-11-20T04:39:05;101255.94;;;0.45;100.00
72896;BME280;61036;53.224;6.554;2022-11-20T04:41:35;101255.06;;;0.44;100.00
72896;BME280;61036;53.224;6.554;2022-11-20T04:44:03;101256.00;;;0.43;100.00
72896;BME280;61036;53.224;6.554;2022-11-20T04:46:31;101255.94;;;0.45;100.00
72896;BME280;61036;53.224;6.554;2022-11-20T04:49:00;101247.91;;;0.48;100.00
72896;BME280;61036;53.224;6.554;2022-11-20T04:51:26;101248.78;;;0.49;100.00
72896;BME280;61036;53.224;6.554;2022-11-20T04:53:55;101248.75;;;0.50;100.00
72896;BME280;61036;53.224;6.554;2022-11-20T04:56:21;101243.41;;;0.52;100.00
72896;BME280;61036;53.224;6.554;2022-11-20T04:58:46;101236.16;;;0.57;100.00
72896;BME280;61036;53.224;6.554;2022-11-20T05:01:16;101232.63;;;0.58;100.00
72896;BME280;61036;53.224;6.554;2022-11-20T05:03:43;101243.06;;;0.64;100.00
72896;BME280;61036;53.224;6.554;2022-11-20T05:06:11;101234.00;;;0.73;100.00
72896;BME280;61036;53.224;6.554;2022-11-20T05:08:37;101234.97;;;0.68;100.00
72896;BME280;61036;53.224;6.554;2022-11-20T05:11:05;101238.66;;;0.63;100.00
72896;BME280;61036;53.224;6.554;2022-11-20T05:13:31;101238.63;;;0.64;100.00
72896;BME280;61036;53.224;6.554;2022-11-20T05:16:04;101220.06;;;0.63;100.00
72896;BME280;61036;53.224;6.554;2022-11-20T05:18:30;101228.78;;;0.68;100.00
72896;BME280;61036;53.224;6.554;2022-11-20T05:20:57;101226.28;;;0.63;100.00
72896;BME280;61036;53.224;6.554;2022-11-20T05:23:23;101226.59;;;0.51;100.00
72896;BME280;61036;53.224;6.554;2022-11-20T05:25:52;101219.22;;;0.62;100.00
72896;BME280;61036;53.224;6.554;2022-11-20T05:28:20;101224.75;;;0.55;100.00
72896;BME280;61036;53.224;6.554;2022-11-20T05:30:49;101222.81;;;0.60;100.00
72896;BME280;61036;53.224;6.554;2022-11-20T05:33:15;101233.09;;;0.72;100.00
72896;BME280;61036;53.224;6.554;2022-11-20T05:35:41;101213.69;;;0.70;100.00
72896;BME280;61036;53.224;6.554;2022-11-20T05:38:07;101209.59;;;0.58;100.00
72896;BME280;61036;53.224;6.554;2022-11-20T05:40:33;101211.34;;;0.59;100.00
72896;BME280;61036;53.224;6.554;2022-11-20T05:42:59;101207.13;;;0.52;100.00
72896;BME280;61036;53.224;6.554;2022-11-20T05:45:26;101203.38;;;0.59;100.00
72896;BME280;61036;53.224;6.554;2022-11-20T05:47:52;101201.47;;;0.64;100.00
72896;BME280;61036;53.224;6.554;2022-11-20T05:50:17;101196.09;;;0.66;100.00
72896;BME280;61036;53.224;6.554;2022-11-20T05:52:44;101203.88;;;0.72;100.00
72896;BME280;61036;53.224;6.554;2022-11-20T05:55:10;101194.19;;;0.71;100.00
72896;BME280;61036;53.224;6.554;2022-11-20T05:57:35;101189.22;;;0.60;100.00
72896;BME280;61036;53.224;6.554;2022-11-20T06:00:02;101190.78;;;0.66;100.00
72896;BME280;61036;53.224;6.554;2022-11-20T06:02:29;101187.59;;;0.55;100.00
72896;BME280;61036;53.224;6.554;2022-11-20T06:04:55;101189.16;;;0.62;100.00
72896;BME280;61036;53.224;6.554;2022-11-20T06:07:20;101186.47;;;0.63;100.00
72896;BME280;61036;53.224;6.554;2022-11-20T06:09:49;101194.34;;;0.66;100.00
72896;BME280;61036;53.224;6.554;2022-11-20T06:12:14;101191.50;;;0.73;100.00
72896;BME280;61036;53.224;6.554;2022-11-20T06:14:40;101197.81;;;0.68;100.00
72896;BME280;61036;53.224;6.554;2022-11-20T06:17:06;101186.50;;;0.62;100.00
72896;BME280;61036;53.224;6.554;2022-11-20T06:19:32;101193.78;;;0.55;100.00
72896;BME280;61036;53.224;6.554;2022-11-20T06:21:58;101188.38;;;0.58;100.00
72896;BME280;61036;53.224;6.554;2022-11-20T06:24:24;101196.09;;;0.66;100.00
72896;BME280;61036;53.224;6.554;2022-11-20T06:26:50;101201.47;;;0.64;100.00
72896;BME280;61036;53.224;6.554;2022-11-20T06:29:17;101203.03;;;0.72;100.00
72896;BME280;61036;53.224;6.554;2022-11-20T06:31:44;101201.50;;;0.63;100.00
72896;BME280;61036;53.224;6.554;2022-11-20T06:34:11;101197.00;;;0.66;100.00
72896;BME280;61036;53.224;6.554;2022-11-20T06:36:37;101199.66;;;0.66;100.00
72896;BME280;61036;53.224;6.554;2022-11-20T06:39:02;101196.94;;;0.68;100.00
72896;BME280;61036;53.224;6.554;2022-11-20T06:41:28;101202.22;;;0.70;100.00
72896;BME280;61036;53.224;6.554;2022-11-20T06:43:54;101199.50;;;0.71;100.00
72896;BME280;61036;53.224;6.554;2022-11-20T06:46:21;101190.59;;;0.74;100.00
72896;BME280;61036;53.224;6.554;2022-11-20T06:48:48;101195.75;;;0.78;100.00
72896;BME280;61036;53.224;6.554;2022-11-20T06:51:14;101192.22;;;0.78;100.00
72896;BME280;61036;53.224;6.554;2022-11-20T06:53:39;101196.84;;;0.71;100.00
72896;BME280;61036;53.224;6.554;2022-11-20T06:56:06;101192.38;;;0.73;100.00
72896;BME280;61036;53.224;6.554;2022-11-20T06:58:34;101196.00;;;0.69;100.00
72896;BME280;61036;53.224;6.554;2022-11-20T07:01:00;101193.38;;;0.69;100.00
72896;BME280;61036;53.224;6.554;2022-11-20T07:03:26;101192.41;;;0.72;100.00
72896;BME280;61036;53.224;6.554;2022-11-20T07:05:56;101194.13;;;0.74;100.00
72896;BME280;61036;53.224;6.554;2022-11-20T07:08:22;101193.16;;;0.77;100.00
72896;BME280;61036;53.224;6.554;2022-11-20T07:10:48;101191.06;;;0.88;100.00
72896;BME280;61036;53.224;6.554;2022-11-20T07:13:14;101192.78;;;0.89;100.00
72896;BME280;61036;53.224;6.554;2022-11-20T07:15:39;101190.13;;;0.90;100.00
72896;BME280;61036;53.224;6.554;2022-11-20T07:18:05;101195.19;;;0.98;100.00
72896;BME280;61036;53.224;6.554;2022-11-20T07:20:31;101197.94;;;0.95;100.00
72896;BME280;61036;53.224;6.554;2022-11-20T07:22:57;101200.00;;;0.85;100.00
72896;BME280;61036;53.224;6.554;2022-11-20T07:25:27;101198.97;;;0.89;100.00
72896;BME280;61036;53.224;6.554;2022-11-20T07:27:59;101194.72;;;0.84;100.00
72896;BME280;61036;53.224;6.554;2022-11-20T07:30:26;101199.34;;;0.77;100.00
72896;BME280;61036;53.224;6.554;2022-11-20T07:32:55;101208.72;;;0.89;100.00
72896;BME280;61036;53.224;6.554;2022-11-20T07:35:23;101201.34;;;0.99;100.00
72896;BME280;61036;53.224;6.554;2022-11-20T07:37:49;101209.19;;;1.03;100.00
72896;BME280;61036;53.224;6.554;2022-11-20T07:40:15;101205.81;;;0.98;100.00
72896;BME280;61036;53.224;6.554;2022-11-20T07:42:52;101204.19;;;0.93;100.00
72896;BME280;61036;53.224;6.554;2022-11-20T07:45:19;101202.22;;;0.99;100.00
72896;BME280;61036;53.224;6.554;2022-11-20T07:47:45;101202.28;;;0.98;100.00
72896;BME280;61036;53.224;6.554;2022-11-20T07:50:11;101205.81;;;0.98;100.00
72896;BME280;61036;53.224;6.554;2022-11-20T07:52:37;101200.66;;;0.94;100.00
72896;BME280;61036;53.224;6.554;2022-11-20T07:55:03;101197.66;;;1.04;100.00
72896;BME280;61036;53.224;6.554;2022-11-20T07:57:29;101192.63;;;0.95;100.00
72896;BME280;61036;53.224;6.554;2022-11-20T07:59:56;101198.75;;;0.97;100.00
72896;BME280;61036;53.224;6.554;2022-11-20T08:02:22;101197.38;;;1.13;100.00
72896;BME280;61036;53.224;6.554;2022-11-20T08:04:48;101202.09;;;1.04;100.00
72896;BME280;61036;53.224;6.554;2022-11-20T08:07:18;101203.13;;;1.00;100.00
72896;BME280;61036;53.224;6.554;2022-11-20T08:09:44;101201.41;;;0.97;100.00
72896;BME280;61036;53.224;6.554;2022-11-20T08:12:20;101206.47;;;1.06;100.00
72896;BME280;61036;53.224;6.554;2022-11-20T08:15:05;101202.00;;;1.07;100.00
72896;BME280;61036;53.224;6.554;2022-11-20T08:17:31;101199.41;;;1.05;100.00
72896;BME280;61036;53.224;6.554;2022-11-20T08:19:56;101198.59;;;1.02;100.00
72896;BME280;61036;53.224;6.554;2022-11-20T08:22:22;101198.41;;;1.09;100.00
72896;BME280;61036;53.224;6.554;2022-11-20T08:24:48;101201.91;;;1.10;100.00
72896;BME280;61036;53.224;6.554;2022-11-20T08:27:13;101201.69;;;1.18;100.00
72896;BME280;61036;53.224;6.554;2022-11-20T08:29:39;101206.56;;;1.31;100.00
72896;BME280;61036;53.224;6.554;2022-11-20T08:32:05;101205.72;;;1.31;100.00
72896;BME280;61036;53.224;6.554;2022-11-20T08:34:30;101215.75;;;1.21;100.00
72896;BME280;61036;53.224;6.554;2022-11-20T08:36:56;101199.16;;;1.13;100.00
72896;BME280;61036;53.224;6.554;2022-11-20T08:39:21;101207.81;;;1.20;100.00
72896;BME280;61036;53.224;6.554;2022-11-20T08:41:47;101222.56;;;1.30;100.00
72896;BME280;61036;53.224;6.554;2022-11-20T08:44:13;101219.31;;;1.20;100.00
72896;BME280;61036;53.224;6.554;2022-11-20T08:46:41;101215.28;;;1.36;100.00
72896;BME280;61036;53.224;6.554;2022-11-20T08:49:11;101213.72;;;1.29;100.00
72896;BME280;61036;53.224;6.554;2022-11-20T08:51:38;101209.28;;;1.30;100.00
72896;BME280;61036;53.224;6.554;2022-11-20T08:54:07;101203.41;;;1.48;100.00
72896;BME280;61036;53.224;6.554;2022-11-20T08:56:33;101202.03;;;1.35;100.00
72896;BME280;61036;53.224;6.554;2022-11-20T08:59:02;101195.91;;;1.33;100.00
72896;BME280;61036;53.224;6.554;2022-11-20T09:01:29;101191.16;;;1.43;100.00
72896;BME280;61036;53.224;6.554;2022-11-20T09:03:55;101192.81;;;1.47;100.00
72896;BME280;61036;53.224;6.554;2022-11-20T09:06:22;101195.75;;;1.37;100.00
72896;BME280;61036;53.224;6.554;2022-11-20T09:08:51;101191.91;;;1.48;100.00
72896;BME280;61036;53.224;6.554;2022-11-20T09:11:17;101195.56;;;1.44;100.00
72896;BME280;61036;53.224;6.554;2022-11-20T09:13:43;101191.16;;;1.43;100.00
72896;BME280;61036;53.224;6.554;2022-11-20T09:16:09;101189.34;;;1.45;100.00
72896;BME280;61036;53.224;6.554;2022-11-20T09:18:36;101191.00;;;1.47;100.00
72896;BME280;61036;53.224;6.554;2022-11-20T09:21:05;101181.22;;;1.49;100.00
72896;BME280;61036;53.224;6.554;2022-11-20T09:23:33;101180.97;;;1.57;100.00
72896;BME280;61036;53.224;6.554;2022-11-20T09:26:02;101191.38;;;1.36;100.00
72896;BME280;61036;53.224;6.554;2022-11-20T09:28:31;101180.97;;;1.29;100.00
72896;BME280;61036;53.224;6.554;2022-11-20T09:30:59;101178.22;;;1.32;100.00
72896;BME280;61036;53.224;6.554;2022-11-20T09:33:26;101186.19;;;1.32;100.00
72896;BME280;61036;53.224;6.554;2022-11-20T09:35:53;101165.66;;;1.37;100.00
72896;BME280;61036;53.224;6.554;2022-11-20T09:38:18;101177.03;;;1.42;100.00
72896;BME280;61036;53.224;6.554;2022-11-20T09:40:49;101175.31;;;1.40;100.00
72896;BME280;61036;53.224;6.554;2022-11-20T09:43:30;101170.78;;;1.43;100.00
72896;BME280;61036;53.224;6.554;2022-11-20T09:46:11;101170.84;;;1.42;100.00
72896;BME280;61036;53.224;6.554;2022-11-20T09:51:53;101162.50;;;1.52;100.00
72896;BME280;61036;53.224;6.554;2022-11-20T09:54:27;101160.72;;;1.53;100.00
72896;BME280;61036;53.224;6.554;2022-11-20T09:56:58;101148.78;;;1.66;100.00
72896;BME280;61036;53.224;6.554;2022-11-20T09:59:38;101148.16;;;1.58;100.00
72896;BME280;61036;53.224;6.554;2022-11-20T10:07:41;101149.94;;;1.57;100.00
72896;BME280;61036;53.224;6.554;2022-11-20T10:18:23;101143.38;;;1.69;100.00
72896;BME280;61036;53.224;6.554;2022-11-20T10:21:03;101148.81;;;1.65;100.00
72896;BME280;61036;53.224;6.554;2022-11-20T10:31:14;101140.94;;;1.88;100.00
72896;BME280;61036;53.224;6.554;2022-11-20T10:33:45;101136.03;;;2.02;100.00
72896;BME280;61036;53.224;6.554;2022-11-20T10:38:56;101115.31;;;2.36;100.00
72896;BME280;61036;53.224;6.554;2022-11-20T10:41:30;101118.28;;;2.51;100.00
72896;BME280;61036;53.224;6.554;2022-11-20T10:44:08;101115.31;;;2.36;100.00
72896;BME280;61036;53.224;6.554;2022-11-20T10:46:44;101111.84;;;2.34;100.00
72896;BME280;61036;53.224;6.554;2022-11-20T10:49:18;101112.63;;;2.61;100.00
72896;BME280;61036;53.224;6.554;2022-11-20T10:54:22;101094.09;;;2.58;100.00
72896;BME280;61036;53.224;6.554;2022-11-20T10:57:17;101094.22;;;2.55;100.00
72896;BME280;61036;53.224;6.554;2022-11-20T10:59:59;101082.72;;;2.76;100.00
72896;BME280;61036;53.224;6.554;2022-11-20T11:02:53;101089.34;;;2.89;100.00
72896;BME280;61036;53.224;6.554;2022-11-20T11:07:55;101085.91;;;2.86;100.00
72896;BME280;61036;53.224;6.554;2022-11-20T11:15:46;101075.09;;;2.67;100.00
72896;BME280;61036;53.224;6.554;2022-11-20T11:18:26;101068.88;;;2.68;100.00
72896;BME280;61036;53.224;6.554;2022-11-20T11:20:54;101076.91;;;2.43;100.00
72896;BME280;61036;53.224;6.554;2022-11-20T11:23:36;101072.41;;;2.45;100.00
72896;BME280;61036;53.224;6.554;2022-11-20T11:26:07;101068.88;;;2.44;100.00
72896;BME280;61036;53.224;6.554;2022-11-20T11:28:53;101070.25;;;2.31;100.00
72896;BME280;61036;53.224;6.554;2022-11-20T11:31:26;101065.84;;;2.30;100.00
72896;BME280;61036;53.224;6.554;2022-11-20T11:36:33;101056.69;;;2.37;100.00
72896;BME280;61036;53.224;6.554;2022-11-20T11:39:00;101059.44;;;2.36;100.00
72896;BME280;61036;53.224;6.554;2022-11-20T11:41:31;101049.03;;;2.53;100.00
72896;BME280;61036;53.224;6.554;2022-11-20T11:44:12;101039.75;;;2.40;100.00
72896;BME280;61036;53.224;6.554;2022-11-20T11:46:59;101044.44;;;2.33;100.00
72896;BME280;61036;53.224;6.554;2022-11-20T11:49:26;101037.28;;;2.35;100.00
72896;BME280;61036;53.224;6.554;2022-11-20T11:52:12;101026.56;;;2.37;100.00
72896;BME280;61036;53.224;6.554;2022-11-20T12:05:25;101027.84;;;2.26;100.00
72896;BME280;61036;53.224;6.554;2022-11-20T12:13:06;101019.56;;;2.58;100.00
72896;BME280;61036;53.224;6.554;2022-11-20T12:15:35;101013.44;;;2.78;100.00
72896;BME280;61036;53.224;6.554;2022-11-20T12:18:01;101007.38;;;2.96;100.00
72896;BME280;61036;53.224;6.554;2022-11-20T12:20:37;101007.75;;;2.87;100.00
72896;BME280;61036;53.224;6.554;2022-11-20T12:23:42;101000.59;;;3.09;100.00
72896;BME280;61036;53.224;6.554;2022-11-20T12:26:45;100998.69;;;2.91;100.00
72896;BME280;61036;53.224;6.554;2022-11-20T12:37:56;100988.75;;;3.79;100.00
72896;BME280;61036;53.224;6.554;2022-11-20T12:43:23;100997.78;;;3.55;100.00
72896;BME280;61036;53.224;6.554;2022-11-20T12:46:17;100994.75;;;3.21;100.00
72896;BME280;61036;53.224;6.554;2022-11-20T12:49:10;100996.81;;;3.15;100.00
72896;BME280;61036;53.224;6.554;2022-11-20T12:57:09;100992.00;;;3.03;100.00
72896;BME280;61036;53.224;6.554;2022-11-20T13:00:43;100986.63;;;3.04;100.00
72896;BME280;61036;53.224;6.554;2022-11-20T13:05:20;100978.84;;;3.20;100.00
72896;BME280;61036;53.224;6.554;2022-11-20T13:07:50;100979.78;;;3.19;100.00
72896;BME280;61036;53.224;6.554;2022-11-20T13:10:45;100964.47;;;3.24;100.00
72896;BME280;61036;53.224;6.554;2022-11-20T13:13:17;100963.19;;;3.12;100.00
72896;BME280;61036;53.224;6.554;2022-11-20T13:15:57;100956.84;;;3.15;100.00
72896;BME280;61036;53.224;6.554;2022-11-20T13:18:24;100956.97;;;3.12;100.00
72896;BME280;61036;53.224;6.554;2022-11-20T13:20:50;100945.28;;;3.16;100.00
72896;BME280;61036;53.224;6.554;2022-11-20T13:23:24;100933.69;;;3.17;100.00
72896;BME280;61036;53.224;6.554;2022-11-20T13:26:02;100929.34;;;3.14;100.00
72896;BME280;61036;53.224;6.554;2022-11-20T13:28:29;100921.94;;;3.21;100.00
72896;BME280;61036;53.224;6.554;2022-11-20T13:30:56;100916.16;;;3.11;100.00
72896;BME280;61036;53.224;6.554;2022-11-20T13:33:33;100920.38;;;3.37;100.00
72896;BME280;61036;53.224;6.554;2022-11-20T13:36:00;100912.50;;;3.34;100.00
72896;BME280;61036;53.224;6.554;2022-11-20T13:38:27;100913.28;;;3.36;100.00
72896;BME280;61036;53.224;6.554;2022-11-20T13:40:59;100915.94;;;3.36;100.00
72896;BME280;61036;53.224;6.554;2022-11-20T13:43:47;100913.91;;;3.23;100.00
72896;BME280;61036;53.224;6.554;2022-11-20T13:46:13;100916.16;;;3.11;100.00
72896;BME280;61036;53.224;6.554;2022-11-20T13:48:43;100913.53;;;3.10;100.00
72896;BME280;61036;53.224;6.554;2022-11-20T14:01:57;100896.81;;;3.06;100.00
72896;BME280;61036;53.224;6.554;2022-11-20T14:04:30;100883.38;;;3.09;100.00
72896;BME280;61036;53.224;6.554;2022-11-20T14:06:57;100878.91;;;3.10;100.00
72896;BME280;61036;53.224;6.554;2022-11-20T14:11:51;100872.41;;;3.17;100.00
72896;BME280;61036;53.224;6.554;2022-11-20T14:14:22;100866.41;;;3.12;100.00
72896;BME280;61036;53.224;6.554;2022-11-20T14:16:50;100868.91;;;3.15;100.00
72896;BME280;61036;53.224;6.554;2022-11-20T14:21:48;100858.00;;;3.01;100.00
72896;BME280;61036;53.224;6.554;2022-11-20T14:24:13;100861.72;;;2.96;100.00
72896;BME280;61036;53.224;6.554;2022-11-20T14:26:44;100857.09;;;3.02;100.00
72896;BME280;61036;53.224;6.554;2022-11-20T14:29:13;100845.56;;;2.81;100.00
72896;BME280;61036;53.224;6.554;2022-11-20T14:31:40;100845.34;;;2.65;100.00
72896;BME280;61036;53.224;6.554;2022-11-20T14:34:14;100839.88;;;2.68;100.00